Time;durP1;ratioP1;P1;durP2;ratioP2;P2;SDS_P1;SDS_P2;PMS_P1;PMS_P2;Temp;Humidity;BMP_temperature;BMP_pressure;BME280_temperature;BME280_humidity;BME280_pressure;Samples;Min_cycle;Max_cycle;Signal;HPM_P1;HPM_P2
2021/07/22 00:00:45;;;;;;;;;;;;;;;;;;5020440;28;1537;-91
2021/07/22 00:03:10;;;;;;;;;;;;;;;;;;5001322;28;1757;-92
2021/07/22 00:05:35;;;;;;;;;;;;;;;;;;5020806;28;1153;-92
2021/07/22 00:08:00;;;;;;;;;;;;;;;;;;5021815;28;1173;-91
2021/07/22 00:10:26;;;;;;;;;;;;;;;;;;5032856;28;1606;-92
2021/07/22 00:12:51;;;;;;;;;;;;;;;;;;5045204;28;1891;-93
2021/07/22 00:15:16;;;;;;;;;;;;;;;;;;5033105;28;1217;-91
2021/07/22 00:17:41;;;;;;;;;;;;;;;;;;5020764;28;1189;-90
2021/07/22 00:20:07;;;;;;;;;;;;;;;;;;5016354;28;1607;-90
2021/07/22 00:22:34;;;;;;;;;;;;;;;;;;5020248;28;1304;-90
2021/07/22 00:25:00;;;;;;;;;;;;;;;;;;5023267;23;3768;-54
2021/07/22 00:27:25;;;;;;;;;;;;;;;;;;5039148;28;1461;-55
2021/07/22 00:29:50;;;;;;;;;;;;;;;;;;5038094;28;1337;-53
2021/07/22 00:32:15;;;;;;;;;;;;;;;;;;5037883;28;1098;-54
2021/07/22 00:34:40;;;;;;;;;;;;;;;;;;5034600;28;1922;-53
2021/07/22 00:37:05;;;;;;;;;;;;;;;;;;5061776;22;2360;-55
2021/07/22 00:39:31;;;;;;;;;;;;;;;;;;5034699;28;1564;-53
2021/07/22 00:41:56;;;;;;;;;;;;;;;;;;5038696;28;957;-53
2021/07/22 00:44:21;;;;;;;;;;;;;;;;;;5038544;28;2090;-54
2021/07/22 00:46:46;;;;;;;;;;;;;;;;;;5037492;28;1305;-53
2021/07/22 00:49:11;;;;;;;;;;;;;;;;;;5017362;28;1575;-54
2021/07/22 00:51:40;;;;;;;;;;;;;;;;;;5017533;28;1390;-54
2021/07/22 00:54:06;;;;;;;;;;;;;;;;;;5021207;28;1981;-54
2021/07/22 00:56:31;;;;;;;;;;;;;;;;;;5016815;28;1584;-54
2021/07/22 00:58:57;;;;;;;;;;;;;;;;;;5015059;28;1478;-53
2021/07/22 01:01:22;;;;;;;;;;;;;;;;;;5014256;28;1469;-54
2021/07/22 01:03:47;;;;;;;;;;;;;;;;;;5014906;28;1572;-53
2021/07/22 01:06:12;;;;;;;;;;;;;;;;;;5018782;28;1101;-53
2021/07/22 01:08:37;;;;;;;;;;;;;;;;;;5018070;28;1291;-53
2021/07/22 01:11:02;;;;;;;;;;;;;;;;;;5018260;28;1647;-53
2021/07/22 01:13:28;;;;;;;;;;;;;;;;;;5019642;28;1969;-53
2021/07/22 01:15:53;;;;;;;;;;;;;;;;;;5019482;28;1311;-53
2021/07/22 01:18:18;;;;;;;;;;;;;;;;;;5018443;28;1441;-53
2021/07/22 01:20:43;;;;;;;;;;;;;;;;;;5015520;28;1754;-54
2021/07/22 01:23:08;;;;;;;;;;;;;;;;;;5019682;28;1133;-54
2021/07/22 01:25:33;;;;;;;;;;;;;;;;;;5016861;28;1555;-52
2021/07/22 01:27:59;;;;;;;;;;;;;;;;;;5020126;28;1367;-53
2021/07/22 01:30:24;;;;;;;;;;;;;;;;;;5016254;28;1723;-54
2021/07/22 01:32:49;;;;;;;;;;;;;;;;;;5016168;28;1906;-54
2021/07/22 01:35:15;;;;;;;;;;;;;;;;;;5019844;28;1194;-53
2021/07/22 01:37:40;;;;;;;;;;;;;;;;;;5017080;28;1528;-52
2021/07/22 01:40:06;;;;;;;;;;;;;;;;;;5015761;28;1614;-53
2021/07/22 01:42:31;;;;;;;;;;;;;;;;;;5018726;28;1157;-53
2021/07/22 01:44:56;;;;;;;;;;;;;;;;;;5022493;28;1362;-53
2021/07/22 01:47:21;;;;;;;;;;;;;;;;;;5023939;28;1275;-53
2021/07/22 01:49:46;;;;;;;;;;;;;;;;;;5019039;28;2004;-52
2021/07/22 01:52:12;;;;;;;;;;;;;;;;;;5022767;28;1224;-52
2021/07/22 01:54:37;;;;;;;;;;;;;;;;;;5018895;28;1959;-54
2021/07/22 01:57:02;;;;;;;;;;;;;;;;;;5022794;28;1351;-54
2021/07/22 01:59:35;;;;;;;;;;;;;;;;;;5022422;28;1231;-53
2021/07/22 02:02:00;;;;;;;;;;;;;;;;;;5021447;28;1053;-53
2021/07/22 02:04:25;;;;;;;;;;;;;;;;;;5017932;28;1730;-53
2021/07/22 02:06:50;;;;;;;;;;;;;;;;;;5023100;28;1378;-53
2021/07/22 02:09:16;;;;;;;;;;;;;;;;;;5020861;28;1138;-54
2021/07/22 02:11:41;;;;;;;;;;;;;;;;;;5019531;28;1626;-53
2021/07/22 02:14:06;;;;;;;;;;;;;;;;;;5022245;28;1930;-53
2021/07/22 02:16:31;;;;;;;;;;;;;;;;;;5017776;28;1577;-54
2021/07/22 02:18:56;;;;;;;;;;;;;;;;;;5014740;28;1947;-53
2021/07/22 02:21:21;;;;;;;;;;;;;;;;;;5020311;28;1212;-53
2021/07/22 02:23:47;;;;;;;;;;;;;;;;;;5020266;28;1595;-51
2021/07/22 02:26:12;;;;;;;;;;;;;;;;;;5018860;28;1911;-54
2021/07/22 02:28:37;;;;;;;;;;;;;;;;;;5020513;28;1566;-54
2021/07/22 02:31:02;;;;;;;;;;;;;;;;;;5021442;28;1210;-54
2021/07/22 02:33:27;;;;;;;;;;;;;;;;;;5020871;28;1970;-52
2021/07/22 02:35:53;;;;;;;;;;;;;;;;;;5021587;28;1107;-54
2021/07/22 02:38:18;;;;;;;;;;;;;;;;;;5019872;28;1711;-54
2021/07/22 02:40:43;;;;;;;;;;;;;;;;;;5021113;28;1779;-53
2021/07/22 02:43:08;;;;;;;;;;;;;;;;;;5019030;28;1473;-52
2021/07/22 02:45:36;;;;;;;;;;;;;;;;;;5016871;28;1571;-53
2021/07/22 02:48:01;;;;;;;;;;;;;;;;;;5021190;28;1282;-52
2021/07/22 02:50:26;;;;;;;;;;;;;;;;;;5020174;28;1362;-52
2021/07/22 02:52:51;;;;;;;;;;;;;;;;;;5017994;28;1966;-53
2021/07/22 02:55:17;;;;;;;;;;;;;;;;;;5017076;28;1575;-53
2021/07/22 02:57:42;;;;;;;;;;;;;;;;;;5021563;28;1496;-52
2021/07/22 03:00:07;;;;;;;;;;;;;;;;;;5023403;28;1189;-53
2021/07/22 03:02:32;;;;;;;;;;;;;;;;;;5017920;28;1457;-52
2021/07/22 03:04:57;;;;;;;;;;;;;;;;;;5019882;28;1572;-52
2021/07/22 03:07:23;;;;;;;;;;;;;;;;;;5020559;28;1306;-53
2021/07/22 03:09:48;;;;;;;;;;;;;;;;;;5017994;28;1684;-53
2021/07/22 03:12:13;;;;;;;;;;;;;;;;;;5020583;28;1216;-52
2021/07/22 03:14:38;;;;;;;;;;;;;;;;;;5019968;28;1981;-53
2021/07/22 03:17:03;;;;;;;;;;;;;;;;;;5017298;28;1512;-52
2021/07/22 03:19:29;;;;;;;;;;;;;;;;;;5022463;28;1061;-51
2021/07/22 03:21:54;;;;;;;;;;;;;;;;;;5020435;28;1073;-52
2021/07/22 03:24:19;;;;;;;;;;;;;;;;;;5019639;28;1485;-53
2021/07/22 03:26:44;;;;;;;;;;;;;;;;;;5018799;28;1626;-53
2021/07/22 03:29:09;;;;;;;;;;;;;;;;;;5021043;28;1438;-51
2021/07/22 03:31:35;;;;;;;;;;;;;;;;;;5021364;28;1126;-50
2021/07/22 03:34:00;;;;;;;;;;;;;;;;;;5019458;28;1898;-52
2021/07/22 03:36:25;;;;;;;;;;;;;;;;;;5020456;28;1331;-51
2021/07/22 03:38:51;;;;;;;;;;;;;;;;;;5021331;28;1386;-53
2021/07/22 03:41:16;;;;;;;;;;;;;;;;;;5018604;28;1561;-51
2021/07/22 03:43:41;;;;;;;;;;;;;;;;;;5017158;28;1534;-53
2021/07/22 03:46:07;;;;;;;;;;;;;;;;;;5016361;28;1295;-53
2021/07/22 03:48:32;;;;;;;;;;;;;;;;;;5019633;28;1488;-52
2021/07/22 03:50:57;;;;;;;;;;;;;;;;;;5019064;28;1622;-53
2021/07/22 03:53:22;;;;;;;;;;;;;;;;;;5019136;28;1906;-52
2021/07/22 03:55:47;;;;;;;;;;;;;;;;;;5017070;28;1591;-52
2021/07/22 03:58:13;;;;;;;;;;;;;;;;;;5020145;28;1321;-53
2021/07/22 04:00:38;;;;;;;;;;;;;;;;;;5021245;28;1162;-53
2021/07/22 04:03:06;;;;;;;;;;;;;;;;;;5015424;28;1559;-52
2021/07/22 04:05:31;;;;;;;;;;;;;;;;;;5019375;28;1232;-51
2021/07/22 04:07:57;;;;;;;;;;;;;;;;;;5018146;28;1446;-53
2021/07/22 04:10:22;;;;;;;;;;;;;;;;;;5019826;28;1646;-53
2021/07/22 04:12:52;;;;;;;;;;;;;;;;;;5017424;28;1973;-53
2021/07/22 04:15:17;;;;;;;;;;;;;;;;;;5020374;28;1177;-52
2021/07/22 04:17:42;;;;;;;;;;;;;;;;;;5018449;28;1601;-53
2021/07/22 04:20:08;;;;;;;;;;;;;;;;;;5020335;28;1184;-52
2021/07/22 04:22:33;;;;;;;;;;;;;;;;;;5020847;28;1374;-53
2021/07/22 04:24:58;;;;;;;;;;;;;;;;;;5017409;28;1542;-52
2021/07/22 04:27:27;;;;;;;;;;;;;;;;;;5015695;28;1683;-51
2021/07/22 04:29:52;;;;;;;;;;;;;;;;;;5020033;28;969;-52
2021/07/22 04:32:17;;;;;;;;;;;;;;;;;;5018462;28;1280;-54
2021/07/22 04:34:42;;;;;;;;;;;;;;;;;;5018658;28;1902;-53
2021/07/22 04:37:08;;;;;;;;;;;;;;;;;;5015551;28;1583;-53
2021/07/22 04:39:33;;;;;;;;;;;;;;;;;;5018140;28;1627;-53
2021/07/22 04:41:58;;;;;;;;;;;;;;;;;;5019354;28;1197;-53
2021/07/22 04:44:26;;;;;;;;;;;;;;;;;;5020106;28;1512;-52
2021/07/22 04:46:51;;;;;;;;;;;;;;;;;;5019898;28;1312;-53
2021/07/22 04:49:16;;;;;;;;;;;;;;;;;;5019750;28;1153;-53
2021/07/22 04:51:41;;;;;;;;;;;;;;;;;;5013557;28;1618;-53
2021/07/22 04:54:06;;;;;;;;;;;;;;;;;;5017817;28;1902;-53
2021/07/22 04:56:32;;;;;;;;;;;;;;;;;;5016534;28;1703;-51
2021/07/22 04:58:57;;;;;;;;;;;;;;;;;;5018299;28;1423;-51
2021/07/22 05:01:22;;;;;;;;;;;;;;;;;;5017747;28;1715;-53
2021/07/22 05:03:47;;;;;;;;;;;;;;;;;;5019622;28;1166;-51
2021/07/22 05:06:12;;;;;;;;;;;;;;;;;;5017013;28;2144;-51
2021/07/22 05:08:40;;;;;;;;;;;;;;;;;;5015790;28;1662;-52
2021/07/22 05:11:06;;;;;;;;;;;;;;;;;;5016226;28;1601;-52
2021/07/22 05:13:35;;;;;;;;;;;;;;;;;;5020720;28;1898;-53
2021/07/22 05:16:00;;;;;;;;;;;;;;;;;;5016903;28;1461;-52
2021/07/22 05:18:25;;;;;;;;;;;;;;;;;;5018053;28;1402;-51
2021/07/22 05:20:50;;;;;;;;;;;;;;;;;;5019767;28;1627;-53
2021/07/22 05:23:15;;;;;;;;;;;;;;;;;;5021810;28;1168;-54
2021/07/22 05:25:41;;;;;;;;;;;;;;;;;;5023051;28;1599;-53
2021/07/22 05:28:06;;;;;;;;;;;;;;;;;;5022525;28;1328;-53
2021/07/22 05:30:31;;;;;;;;;;;;;;;;;;5021965;28;1410;-53
2021/07/22 05:32:56;;;;;;;;;;;;;;;;;;5021473;28;1902;-53
2021/07/22 05:35:21;;;;;;;;;;;;;;;;;;5023146;28;1149;-53
2021/07/22 05:37:46;;;;;;;;;;;;;;;;;;5022966;28;1376;-51
2021/07/22 05:40:12;;;;;;;;;;;;;;;;;;5021159;28;1607;-53
2021/07/22 05:42:37;;;;;;;;;;;;;;;;;;5019243;28;1260;-51
2021/07/22 05:45:02;;;;;;;;;;;;;;;;;;5022807;28;1211;-53
2021/07/22 05:47:27;;;;;;;;;;;;;;;;;;5022583;28;1366;-53
2021/07/22 05:49:53;;;;;;;;;;;;;;;;;;5020009;28;1728;-52
2021/07/22 05:52:18;;;;;;;;;;;;;;;;;;5022060;28;1299;-52
2021/07/22 05:54:43;;;;;;;;;;;;;;;;;;5020942;28;1965;-54
2021/07/22 05:57:08;;;;;;;;;;;;;;;;;;5021692;28;1484;-53
2021/07/22 05:59:33;;;;;;;;;;;;;;;;;;5019897;28;1346;-53
2021/07/22 06:01:59;;;;;;;;;;;;;;;;;;5019094;28;1996;-51
2021/07/22 06:04:24;;;;;;;;;;;;;;;;;;5022007;28;1073;-52
2021/07/22 06:06:49;;;;;;;;;;;;;;;;;;5022707;28;1274;-53
2021/07/22 06:09:14;;;;;;;;;;;;;;;;;;5020180;28;1403;-53
2021/07/22 06:11:39;;;;;;;;;;;;;;;;;;5019051;28;1484;-52
2021/07/22 06:14:04;;;;;;;;;;;;;;;;;;5022725;28;1902;-51
2021/07/22 06:16:30;;;;;;;;;;;;;;;;;;5021563;28;1130;-52
2021/07/22 06:18:55;;;;;;;;;;;;;;;;;;5020575;28;1938;-52
2021/07/22 06:21:20;;;;;;;;;;;;;;;;;;5020607;28;1103;-52
2021/07/22 06:23:46;;;;;;;;;;;;;;;;;;5020503;28;1302;-51
2021/07/22 06:26:11;;;;;;;;;;;;;;;;;;5017996;28;1745;-53
2021/07/22 06:28:36;;;;;;;;;;;;;;;;;;5019382;28;1425;-52
2021/07/22 06:31:01;;;;;;;;;;;;;;;;;;5021844;28;1232;-52
2021/07/22 06:33:27;;;;;;;;;;;;;;;;;;5018047;28;1972;-53
2021/07/22 06:35:52;;;;;;;;;;;;;;;;;;5022692;28;1188;-53
2021/07/22 06:38:17;;;;;;;;;;;;;;;;;;5036127;23;3818;-51
2021/07/22 06:40:42;;;;;;;;;;;;;;;;;;5019641;28;1562;-51
2021/07/22 06:43:08;;;;;;;;;;;;;;;;;;5018836;28;1419;-52
2021/07/22 06:45:33;;;;;;;;;;;;;;;;;;5022238;28;1172;-51
2021/07/22 06:47:58;;;;;;;;;;;;;;;;;;5023213;28;1453;-51
2021/07/22 06:50:23;;;;;;;;;;;;;;;;;;5007759;28;1655;-52
2021/07/22 06:52:49;;;;;;;;;;;;;;;;;;5028466;28;1434;-51
2021/07/22 06:55:14;;;;;;;;;;;;;;;;;;5029339;28;1906;-52
2021/07/22 06:57:39;;;;;;;;;;;;;;;;;;5022322;28;1398;-52
2021/07/22 07:00:04;;;;;;;;;;;;;;;;;;5030230;28;1180;-52
2021/07/22 07:02:30;;;;;;;;;;;;;;;;;;5027251;28;1646;-51
2021/07/22 07:04:55;;;;;;;;;;;;;;;;;;5031657;28;1129;-51
2021/07/22 07:07:20;;;;;;;;;;;;;;;;;;5029083;28;1445;-51
2021/07/22 07:09:45;;;;;;;;;;;;;;;;;;5026763;28;1994;-52
2021/07/22 07:12:10;;;;;;;;;;;;;;;;;;5026937;28;1415;-51
2021/07/22 07:14:36;;;;;;;;;;;;;;;;;;5028936;28;1894;-51
2021/07/22 07:17:01;;;;;;;;;;;;;;;;;;5028031;28;1419;-51
2021/07/22 07:19:27;;;;;;;;;;;;;;;;;;5023168;28;1571;-51
2021/07/22 07:21:52;;;;;;;;;;;;;;;;;;5028322;28;1086;-51
2021/07/22 07:24:17;;;;;;;;;;;;;;;;;;5027441;28;1346;-51
2021/07/22 07:26:42;;;;;;;;;;;;;;;;;;5028385;28;1611;-52
2021/07/22 07:29:07;;;;;;;;;;;;;;;;;;5027925;28;1343;-51
2021/07/22 07:31:32;;;;;;;;;;;;;;;;;;5030000;28;1276;-51
2021/07/22 07:33:58;;;;;;;;;;;;;;;;;;5023211;28;1906;-52
2021/07/22 07:36:23;;;;;;;;;;;;;;;;;;5029454;28;1247;-51
2021/07/22 07:38:48;;;;;;;;;;;;;;;;;;5030665;28;1330;-52
2021/07/22 07:41:13;;;;;;;;;;;;;;;;;;5024308;28;1492;-51
2021/07/22 07:43:38;;;;;;;;;;;;;;;;;;5028066;28;1216;-51
2021/07/22 07:46:03;;;;;;;;;;;;;;;;;;5025971;28;1354;-51
2021/07/22 07:48:29;;;;;;;;;;;;;;;;;;5026940;28;1534;-52
2021/07/22 07:50:54;;;;;;;;;;;;;;;;;;5028611;28;1434;-52
2021/07/22 07:53:19;;;;;;;;;;;;;;;;;;5024438;28;1934;-51
2021/07/22 07:55:45;;;;;;;;;;;;;;;;;;5025146;28;1567;-51
2021/07/22 07:58:10;;;;;;;;;;;;;;;;;;5022002;28;1442;-52
2021/07/22 08:00:35;;;;;;;;;;;;;;;;;;5028011;28;1414;-51
2021/07/22 08:03:00;;;;;;;;;;;;;;;;;;5022815;28;1570;-51
2021/07/22 08:05:26;;;;;;;;;;;;;;;;;;5029842;28;1283;-50
2021/07/22 08:07:51;;;;;;;;;;;;;;;;;;5030589;28;1296;-49
2021/07/22 08:10:16;;;;;;;;;;;;;;;;;;5024076;28;1531;-49
2021/07/22 08:12:41;;;;;;;;;;;;;;;;;;5023689;28;1355;-50
2021/07/22 08:15:07;;;;;;;;;;;;;;;;;;5026531;28;1979;-49
2021/07/22 08:17:32;;;;;;;;;;;;;;;;;;5028579;28;1454;-50
2021/07/22 08:20:00;;;;;;;;;;;;;;;;;;5025205;28;1551;-50
2021/07/22 08:22:25;;;;;;;;;;;;;;;;;;5025309;28;1549;-51
2021/07/22 08:24:50;;;;;;;;;;;;;;;;;;5024539;28;1629;-50
2021/07/22 08:27:23;;;;;;;;;;;;;;;;;;5029110;28;1280;-49
2021/07/22 08:29:48;;;;;;;;;;;;;;;;;;5026540;28;1448;-51
2021/07/22 08:32:13;;;;;;;;;;;;;;;;;;5029535;28;1227;-50
2021/07/22 08:34:38;;;;;;;;;;;;;;;;;;5025369;28;1965;-51
2021/07/22 08:37:08;;;;;;;;;;;;;;;;;;5030147;28;1082;-49
2021/07/22 08:39:37;;;;;;;;;;;;;;;;;;5022912;28;1555;-50
2021/07/22 08:42:03;;;;;;;;;;;;;;;;;;5026641;28;1130;-50
2021/07/22 08:44:28;;;;;;;;;;;;;;;;;;5028773;28;1220;-49
2021/07/22 08:46:53;;;;;;;;;;;;;;;;;;5008287;28;1228;-50
2021/07/22 08:49:19;;;;;;;;;;;;;;;;;;5008182;28;1374;-50
2021/07/22 08:51:44;;;;;;;;;;;;;;;;;;5027000;28;1578;-50
2021/07/22 08:54:09;;;;;;;;;;;;;;;;;;5033062;28;1902;-50
2021/07/22 08:56:34;;;;;;;;;;;;;;;;;;5027321;28;1613;-50
2021/07/22 08:59:00;;;;;;;;;;;;;;;;;;5032665;28;1298;-50
2021/07/22 09:01:26;;;;;;;;;;;;;;;;;;5029846;28;1432;-50
2021/07/22 09:03:52;;;;;;;;;;;;;;;;;;5032035;28;1413;-52
2021/07/22 09:06:18;;;;;;;;;;;;;;;;;;5029445;28;1631;-50
2021/07/22 09:08:43;;;;;;;;;;;;;;;;;;5033576;28;1271;-50
2021/07/22 09:11:09;;;;;;;;;;;;;;;;;;5024924;28;1685;-51
2021/07/22 09:13:35;;;;;;;;;;;;;;;;;;5030681;28;1906;-49
2021/07/22 09:16:00;;;;;;;;;;;;;;;;;;5031207;28;1153;-51
2021/07/22 09:18:26;;;;;;;;;;;;;;;;;;5032977;28;1388;-51
2021/07/22 09:20:52;;;;;;;;;;;;;;;;;;5028508;28;1675;-51
2021/07/22 09:23:18;;;;;;;;;;;;;;;;;;5032168;28;1161;-50
2021/07/22 09:25:44;;;;;;;;;;;;;;;;;;5024040;28;1638;-50
2021/07/22 09:28:13;;;;;;;;;;;;;;;;;;5028284;28;1359;-50
2021/07/22 09:30:38;;;;;;;;;;;;;;;;;;5031596;28;1418;-50
2021/07/22 09:33:04;;;;;;;;;;;;;;;;;;5025401;28;1961;-50
2021/07/22 09:35:30;;;;;;;;;;;;;;;;;;5033037;28;1231;-51
2021/07/22 09:37:55;;;;;;;;;;;;;;;;;;5029347;28;1643;-51
2021/07/22 09:40:28;;;;;;;;;;;;;;;;;;5027141;28;1587;-49
2021/07/22 09:42:57;;;;;;;;;;;;;;;;;;5028979;28;1196;-51
2021/07/22 09:45:26;;;;;;;;;;;;;;;;;;5031709;28;1156;-51
2021/07/22 09:47:51;;;;;;;;;;;;;;;;;;5029503;28;1365;-51
2021/07/22 09:50:21;;;;;;;;;;;;;;;;;;5029635;28;1577;-49
2021/07/22 09:52:46;;;;;;;;;;;;;;;;;;5032229;28;1081;-50
2021/07/22 09:55:23;;;;;;;;;;;;;;;;;;5026784;28;1906;-50
2021/07/22 09:57:52;;;;;;;;;;;;;;;;;;5027707;28;1284;-50
2021/07/22 10:00:17;;;;;;;;;;;;;;;;;;5028753;28;1529;-49
2021/07/22 10:02:42;;;;;;;;;;;;;;;;;;5031348;28;1049;-51
2021/07/22 10:05:09;;;;;;;;;;;;;;;;;;5023254;28;1572;-51
2021/07/22 10:07:35;;;;;;;;;;;;;;;;;;5009895;28;1343;-51
2021/07/22 10:10:01;;;;;;;;;;;;;;;;;;5027534;28;1567;-51
2021/07/22 10:12:26;;;;;;;;;;;;;;;;;;5027415;28;1390;-51
2021/07/22 10:14:55;;;;;;;;;;;;;;;;;;5030812;28;1902;-49
2021/07/22 10:17:47;;;;;;;;;;;;;;;;;;5027828;28;1607;-50
2021/07/22 10:20:12;;;;;;;;;;;;;;;;;;5030907;28;1872;-51
2021/07/22 10:22:37;;;;;;;;;;;;;;;;;;5028481;28;1336;-50
2021/07/22 10:25:03;;;;;;;;;;;;;;;;;;4946006;28;1572;-50
2021/07/22 10:27:28;;;;;;;;;;;;;;;;;;5031927;28;1282;-51
2021/07/22 10:29:53;;;;;;;;;;;;;;;;;;5012352;28;1332;-51
2021/07/22 10:32:19;;;;;;;;;;;;;;;;;;5030546;28;1189;-49
2021/07/22 10:34:44;;;;;;;;;;;;;;;;;;5007520;28;2207;-49
2021/07/22 10:37:09;;;;;;;;;;;;;;;;;;5031706;28;1204;-51
2021/07/22 10:40:10;;;;;;;;;;;;;;;;;;5027461;28;1658;-50
2021/07/22 10:42:48;;;;;;;;;;;;;;;;;;5027396;28;1011;-49
2021/07/22 10:45:19;;;;;;;;;;;;;;;;;;5026887;28;1608;-50
2021/07/22 10:48:03;;;;;;;;;;;;;;;;;;5029678;28;1273;-51
2021/07/22 10:50:37;;;;;;;;;;;;;;;;;;5026743;28;1603;-51
2021/07/22 10:53:03;;;;;;;;;;;;;;;;;;5028836;28;1973;-51
2021/07/22 10:55:40;;;;;;;;;;;;;;;;;;5020555;28;1581;-50
2021/07/22 10:58:25;;;;;;;;;;;;;;;;;;5028454;28;1588;-51
2021/07/22 11:00:50;;;;;;;;;;;;;;;;;;5028654;28;1460;-51
2021/07/22 11:06:00;;;;;;;;;;;;;;;;;;5026790;28;1595;-51
2021/07/22 11:08:26;;;;;;;;;;;;;;;;;;5030729;28;1270;-49
2021/07/22 11:10:51;;;;;;;;;;;;;;;;;;5026017;28;1659;-50
2021/07/22 11:13:35;;;;;;;;;;;;;;;;;;5029146;28;1906;-50
2021/07/22 11:16:09;;;;;;;;;;;;;;;;;;5027165;28;1366;-49
2021/07/22 11:18:43;;;;;;;;;;;;;;;;;;5022180;28;1449;-51
2021/07/22 11:21:11;;;;;;;;;;;;;;;;;;5024619;28;1551;-51
2021/07/22 11:23:37;;;;;;;;;;;;;;;;;;5028569;28;1136;-51
2021/07/22 11:26:02;;;;;;;;;;;;;;;;;;5026468;28;1738;-51
2021/07/22 11:28:27;;;;;;;;;;;;;;;;;;5028374;28;1403;-50
2021/07/22 11:31:08;;;;;;;;;;;;;;;;;;5028394;28;1069;-49
2021/07/22 11:33:43;;;;;;;;;;;;;;;;;;5023508;28;1977;-51
2021/07/22 11:36:15;;;;;;;;;;;;;;;;;;5009897;28;1126;-51
2021/07/22 11:38:40;;;;;;;;;;;;;;;;;;5019050;28;1535;-51
2021/07/22 11:41:12;;;;;;;;;;;;;;;;;;5024011;28;1615;-50
2021/07/22 11:43:37;;;;;;;;;;;;;;;;;;5024832;28;1613;-51
2021/07/22 11:46:03;;;;;;;;;;;;;;;;;;5028919;28;1169;-51
2021/07/22 11:48:28;;;;;;;;;;;;;;;;;;5029621;28;1213;-49
2021/07/22 11:50:57;;;;;;;;;;;;;;;;;;5023139;28;1655;-50
2021/07/22 11:53:23;;;;;;;;;;;;;;;;;;5025963;28;1981;-49
2021/07/22 11:55:48;;;;;;;;;;;;;;;;;;5007683;28;1560;-49
2021/07/22 11:58:16;;;;;;;;;;;;;;;;;;5011930;28;1290;-51
2021/07/22 12:00:41;;;;;;;;;;;;;;;;;;5026342;28;1382;-51
2021/07/22 12:03:06;;;;;;;;;;;;;;;;;;5007967;28;1498;-51
2021/07/22 12:05:32;;;;;;;;;;;;;;;;;;5024029;28;1362;-50
2021/07/22 12:08:12;;;;;;;;;;;;;;;;;;5023564;28;1591;-50
2021/07/22 12:10:37;;;;;;;;;;;;;;;;;;5020572;28;1587;-49
2021/07/22 12:13:04;;;;;;;;;;;;;;;;;;5024341;28;1343;-50
2021/07/22 12:15:29;;;;;;;;;;;;;;;;;;5027181;28;1129;-52
2021/07/22 12:17:54;;;;;;;;;;;;;;;;;;5025194;28;1564;-52
2021/07/22 12:20:20;;;;;;;;;;;;;;;;;;5029234;28;1121;-53
2021/07/22 12:22:45;;;;;;;;;;;;;;;;;;5024386;28;1527;-51
2021/07/22 12:25:11;;;;;;;;;;;;;;;;;;5025189;28;1559;-52
2021/07/22 12:27:37;;;;;;;;;;;;;;;;;;5027382;28;1350;-52
2021/07/22 12:30:03;;;;;;;;;;;;;;;;;;5027812;28;1192;-53
2021/07/22 12:32:29;;;;;;;;;;;;;;;;;;5022530;28;1629;-52
2021/07/22 12:34:55;;;;;;;;;;;;;;;;;;5022452;28;1914;-52
2021/07/22 12:37:20;;;;;;;;;;;;;;;;;;5020700;28;1550;-52
2021/07/22 12:39:46;;;;;;;;;;;;;;;;;;5010017;28;1492;-50
2021/07/22 12:42:12;;;;;;;;;;;;;;;;;;5012927;28;1323;-52
2021/07/22 12:44:43;;;;;;;;;;;;;;;;;;5017860;28;1749;-52
2021/07/22 12:47:28;;;;;;;;;;;;;;;;;;5025605;28;1034;-51
2021/07/22 12:49:54;;;;;;;;;;;;;;;;;;5024124;28;1595;-52
2021/07/22 12:52:19;;;;;;;;;;;;;;;;;;5019155;28;1591;-52
2021/07/22 12:54:44;;;;;;;;;;;;;;;;;;5019620;28;1973;-51
2021/07/22 12:57:10;;;;;;;;;;;;;;;;;;5000033;28;1844;-51
2021/07/22 12:59:35;;;;;;;;;;;;;;;;;;5022670;28;1378;-50
2021/07/22 13:02:00;;;;;;;;;;;;;;;;;;5024555;28;1252;-52
2021/07/22 13:04:25;;;;;;;;;;;;;;;;;;5020243;28;1489;-51
2021/07/22 13:06:52;;;;;;;;;;;;;;;;;;5011557;28;1657;-51
2021/07/22 13:09:17;;;;;;;;;;;;;;;;;;5016928;28;1473;-50
2021/07/22 13:11:43;;;;;;;;;;;;;;;;;;5020367;28;1647;-50
2021/07/22 13:14:08;;;;;;;;;;;;;;;;;;5017447;28;1968;-51
2021/07/22 13:16:33;;;;;;;;;;;;;;;;;;5019663;28;1601;-51
2021/07/22 13:18:58;;;;;;;;;;;;;;;;;;5023141;28;1300;-51
2021/07/22 13:21:26;;;;;;;;;;;;;;;;;;5024717;28;1239;-51
2021/07/22 13:23:51;;;;;;;;;;;;;;;;;;5016215;28;1426;-50
2021/07/22 13:26:17;;;;;;;;;;;;;;;;;;5017836;28;1650;-52
2021/07/22 13:28:47;;;;;;;;;;;;;;;;;;5016689;28;1454;-52
2021/07/22 13:31:12;;;;;;;;;;;;;;;;;;5024206;28;1125;-51
2021/07/22 13:33:38;;;;;;;;;;;;;;;;;;5020905;28;1906;-52
2021/07/22 13:36:03;;;;;;;;;;;;;;;;;;5022892;28;1097;-51
2021/07/22 13:38:32;;;;;;;;;;;;;;;;;;5022482;28;1326;-50
2021/07/22 13:40:57;;;;;;;;;;;;;;;;;;5025249;28;1611;-51
2021/07/22 13:43:23;;;;;;;;;;;;;;;;;;5021123;28;1538;-51
2021/07/22 13:45:48;;;;;;;;;;;;;;;;;;5016601;28;1737;-51
2021/07/22 13:48:13;;;;;;;;;;;;;;;;;;5027251;28;1380;-52
2021/07/22 13:50:38;;;;;;;;;;;;;;;;;;5021484;28;1454;-52
2021/07/22 13:53:03;;;;;;;;;;;;;;;;;;5025992;28;1625;-50
2021/07/22 13:55:28;;;;;;;;;;;;;;;;;;5021403;28;1980;-52
2021/07/22 13:57:54;;;;;;;;;;;;;;;;;;5022828;28;1569;-51
2021/07/22 14:00:19;;;;;;;;;;;;;;;;;;5026218;28;1113;-52
2021/07/22 14:02:44;;;;;;;;;;;;;;;;;;5026220;28;1486;-50
2021/07/22 14:05:09;;;;;;;;;;;;;;;;;;5019979;28;2186;-52
2021/07/22 14:07:35;;;;;;;;;;;;;;;;;;5020308;28;1374;-52
2021/07/22 14:10:00;;;;;;;;;;;;;;;;;;5018717;28;1550;-51
2021/07/22 14:12:25;;;;;;;;;;;;;;;;;;5019980;28;1485;-51
2021/07/22 14:14:50;;;;;;;;;;;;;;;;;;5023656;28;1970;-50
2021/07/22 14:17:15;;;;;;;;;;;;;;;;;;5013429;28;1615;-52
2021/07/22 14:19:41;;;;;;;;;;;;;;;;;;5008390;28;1595;-53
2021/07/22 14:22:06;;;;;;;;;;;;;;;;;;5019332;28;1322;-52
2021/07/22 14:24:31;;;;;;;;;;;;;;;;;;5016621;28;1643;-51
2021/07/22 14:26:57;;;;;;;;;;;;;;;;;;5017413;28;2125;-50
2021/07/22 14:29:22;;;;;;;;;;;;;;;;;;5022515;28;1367;-52
2021/07/22 14:31:47;;;;;;;;;;;;;;;;;;5020060;28;1090;-52
2021/07/22 14:34:13;;;;;;;;;;;;;;;;;;5017859;28;1906;-52
2021/07/22 14:36:38;;;;;;;;;;;;;;;;;;5022163;28;1674;-50
2021/07/22 14:39:03;;;;;;;;;;;;;;;;;;5024718;28;1274;-50
2021/07/22 14:41:28;;;;;;;;;;;;;;;;;;5017566;28;1599;-51
2021/07/22 14:43:53;;;;;;;;;;;;;;;;;;5023534;28;1049;-51
2021/07/22 14:46:18;;;;;;;;;;;;;;;;;;5020934;28;1197;-52
2021/07/22 14:48:43;;;;;;;;;;;;;;;;;;5023861;28;1290;-50
2021/07/22 14:51:09;;;;;;;;;;;;;;;;;;5020463;28;1508;-51
2021/07/22 14:53:34;;;;;;;;;;;;;;;;;;5026189;28;1914;-52
2021/07/22 14:55:59;;;;;;;;;;;;;;;;;;5005367;28;1512;-51
2021/07/22 14:58:24;;;;;;;;;;;;;;;;;;5024276;28;1225;-52
2021/07/22 15:00:49;;;;;;;;;;;;;;;;;;5021353;28;1236;-51
2021/07/22 15:03:16;;;;;;;;;;;;;;;;;;5009616;28;1540;-51
2021/07/22 15:05:41;;;;;;;;;;;;;;;;;;5020338;28;2029;-51
2021/07/22 15:08:06;;;;;;;;;;;;;;;;;;5025089;28;1220;-51
2021/07/22 15:10:31;;;;;;;;;;;;;;;;;;5019413;28;1551;-51
2021/07/22 15:12:58;;;;;;;;;;;;;;;;;;5024498;28;1089;-50
2021/07/22 15:15:23;;;;;;;;;;;;;;;;;;5007025;28;1906;-50
2021/07/22 15:17:48;;;;;;;;;;;;;;;;;;5018506;28;1657;-48
2021/07/22 15:20:13;;;;;;;;;;;;;;;;;;5020891;28;1027;-50
2021/07/22 15:22:39;;;;;;;;;;;;;;;;;;5039409;23;2037;-53
2021/07/22 15:25:04;;;;;;;;;;;;;;;;;;5022868;28;1533;-53
2021/07/22 15:27:29;;;;;;;;;;;;;;;;;;5021575;28;1185;-52
2021/07/22 15:29:55;;;;;;;;;;;;;;;;;;5020502;28;1542;-52
2021/07/22 15:32:20;;;;;;;;;;;;;;;;;;5020801;28;1276;-51
2021/07/22 15:34:45;;;;;;;;;;;;;;;;;;5024787;28;1971;-52
2021/07/22 15:37:10;;;;;;;;;;;;;;;;;;5019683;28;1669;-52
2021/07/22 15:39:35;;;;;;;;;;;;;;;;;;5020065;28;1566;-51
2021/07/22 15:42:01;;;;;;;;;;;;;;;;;;5026198;28;1354;-54
2021/07/22 15:44:26;;;;;;;;;;;;;;;;;;5020008;28;1216;-52
2021/07/22 15:46:51;;;;;;;;;;;;;;;;;;5020646;28;1624;-52
2021/07/22 15:49:16;;;;;;;;;;;;;;;;;;5024035;28;1165;-51
2021/07/22 15:51:41;;;;;;;;;;;;;;;;;;5020299;28;1185;-53
2021/07/22 15:54:08;;;;;;;;;;;;;;;;;;5022864;28;1973;-54
2021/07/22 15:56:33;;;;;;;;;;;;;;;;;;5020963;28;1809;-52
2021/07/22 15:58:58;;;;;;;;;;;;;;;;;;5022929;28;1426;-53
2021/07/22 16:01:24;;;;;;;;;;;;;;;;;;5020251;28;1165;-52
2021/07/22 16:03:49;;;;;;;;;;;;;;;;;;5021912;28;1566;-52
2021/07/22 16:06:14;;;;;;;;;;;;;;;;;;5024148;28;1519;-52
2021/07/22 16:08:39;;;;;;;;;;;;;;;;;;5020441;28;1377;-52
2021/07/22 16:11:05;;;;;;;;;;;;;;;;;;5020391;28;1618;-52
2021/07/22 16:13:30;;;;;;;;;;;;;;;;;;5020979;28;1971;-53
2021/07/22 16:15:55;;;;;;;;;;;;;;;;;;5022198;28;1553;-53
2021/07/22 16:18:20;;;;;;;;;;;;;;;;;;5021388;28;1530;-53
2021/07/22 16:20:45;;;;;;;;;;;;;;;;;;5020401;28;1205;-54
2021/07/22 16:23:10;;;;;;;;;;;;;;;;;;5020433;28;1377;-54
2021/07/22 16:25:36;;;;;;;;;;;;;;;;;;5023129;28;1569;-54
2021/07/22 16:28:01;;;;;;;;;;;;;;;;;;5010599;28;1526;-54
2021/07/22 16:30:26;;;;;;;;;;;;;;;;;;5021290;28;1138;-53
2021/07/22 16:32:51;;;;;;;;;;;;;;;;;;5021120;28;1345;-54
2021/07/22 16:35:18;;;;;;;;;;;;;;;;;;5026134;28;1902;-54
2021/07/22 16:37:43;;;;;;;;;;;;;;;;;;5021170;28;1291;-54
2021/07/22 16:40:09;;;;;;;;;;;;;;;;;;5021318;28;1677;-52
2021/07/22 16:42:34;;;;;;;;;;;;;;;;;;5019996;28;1481;-54
2021/07/22 16:45:00;;;;;;;;;;;;;;;;;;5025041;28;1555;-52
2021/07/22 16:47:25;;;;;;;;;;;;;;;;;;5018793;28;1358;-53
2021/07/22 16:49:51;;;;;;;;;;;;;;;;;;5022684;28;1063;-53
2021/07/22 16:52:16;;;;;;;;;;;;;;;;;;5018164;28;1623;-53
2021/07/22 16:54:42;;;;;;;;;;;;;;;;;;5022124;28;1914;-53
2021/07/22 16:57:07;;;;;;;;;;;;;;;;;;5020587;28;1603;-54